sensor_id;sensor_type;location;lat;lon;timestamp;P1;durP1;ratioP1;P2;durP2;ratioP2
44048;SDS011;29717;47.028;15.470;2022-07-10T00:00:06;4.55;;;1.20;;
44048;SDS011;29717;47.028;15.470;2022-07-10T00:02:33;2.30;;;1.10;;
44048;SDS011;29717;47.028;15.470;2022-07-10T00:05:01;1.45;;;1.15;;
44048;SDS011;29717;47.028;15.470;2022-07-10T00:07:28;1.73;;;1.02;;
44048;SDS011;29717;47.028;15.470;2022-07-10T00:09:54;1.23;;;1.08;;
44048;SDS011;29717;47.028;15.470;2022-07-10T00:12:21;1.20;;;1.10;;
44048;SDS011;29717;47.028;15.470;2022-07-10T00:14:50;1.10;;;1.00;;
44048;SDS011;29717;47.028;15.470;2022-07-10T00:17:17;1.55;;;1.20;;
44048;SDS011;29717;47.028;15.470;2022-07-10T00:19:44;2.22;;;1.00;;
44048;SDS011;29717;47.028;15.470;2022-07-10T00:22:11;1.25;;;0.98;;
44048;SDS011;29717;47.028;15.470;2022-07-10T00:24:38;1.20;;;1.10;;
44048;SDS011;29717;47.028;15.470;2022-07-10T00:27:05;1.45;;;1.15;;
44048;SDS011;29717;47.028;15.470;2022-07-10T00:29:31;5.97;;;1.17;;
44048;SDS011;29717;47.028;15.470;2022-07-10T00:32:00;1.10;;;1.00;;
44048;SDS011;29717;47.028;15.470;2022-07-10T00:34:27;1.40;;;1.30;;
44048;SDS011;29717;47.028;15.470;2022-07-10T00:36:54;3.25;;;1.27;;
44048;SDS011;29717;47.028;15.470;2022-07-10T00:39:21;1.98;;;1.20;;
44048;SDS011;29717;47.028;15.470;2022-07-10T00:41:47;1.52;;;1.10;;
44048;SDS011;29717;47.028;15.470;2022-07-10T00:44:14;3.03;;;1.30;;
44048;SDS011;29717;47.028;15.470;2022-07-10T00:46:41;2.35;;;1.13;;
44048;SDS011;29717;47.028;15.470;2022-07-10T00:49:10;1.60;;;1.17;;
44048;SDS011;29717;47.028;15.470;2022-07-10T00:51:36;1.60;;;1.00;;
44048;SDS011;29717;47.028;15.470;2022-07-10T00:54:04;1.10;;;1.00;;
44048;SDS011;29717;47.028;15.470;2022-07-10T00:56:31;3.28;;;1.20;;
44048;SDS011;29717;47.028;15.470;2022-07-10T00:58:58;1.38;;;1.10;;
44048;SDS011;29717;47.028;15.470;2022-07-10T01:01:33;1.30;;;1.00;;
44048;SDS011;29717;47.028;15.470;2022-07-10T01:04:00;1.90;;;1.10;;
44048;SDS011;29717;47.028;15.470;2022-07-10T01:06:36;1.63;;;1.20;;
44048;SDS011;29717;47.028;15.470;2022-07-10T01:09:10;1.80;;;1.23;;
44048;SDS011;29717;47.028;15.470;2022-07-10T01:11:42;1.63;;;1.23;;
44048;SDS011;29717;47.028;15.470;2022-07-10T01:14:14;2.60;;;1.27;;
44048;SDS011;29717;47.028;15.470;2022-07-10T01:16:47;3.33;;;1.40;;
44048;SDS011;29717;47.028;15.470;2022-07-10T01:19:31;2.78;;;1.42;;
44048;SDS011;29717;47.028;15.470;2022-07-10T01:22:04;1.30;;;1.20;;
44048;SDS011;29717;47.028;15.470;2022-07-10T01:24:45;1.38;;;1.27;;
44048;SDS011;29717;47.028;15.470;2022-07-10T01:30:25;2.42;;;1.38;;
44048;SDS011;29717;47.028;15.470;2022-07-10T01:33:01;1.70;;;1.30;;
44048;SDS011;29717;47.028;15.470;2022-07-10T01:35:33;2.33;;;1.50;;
44048;SDS011;29717;47.028;15.470;2022-07-10T01:38:01;2.20;;;1.38;;
44048;SDS011;29717;47.028;15.470;2022-07-10T01:40:32;2.72;;;1.33;;
44048;SDS011;29717;47.028;15.470;2022-07-10T01:43:00;1.20;;;1.08;;
44048;SDS011;29717;47.028;15.470;2022-07-10T01:45:29;1.60;;;1.20;;
44048;SDS011;29717;47.028;15.470;2022-07-10T01:47:59;1.58;;;1.20;;
44048;SDS011;29717;47.028;15.470;2022-07-10T01:50:31;1.65;;;1.23;;
44048;SDS011;29717;47.028;15.470;2022-07-10T01:53:04;2.05;;;1.20;;
44048;SDS011;29717;47.028;15.470;2022-07-10T01:55:39;1.20;;;1.10;;
44048;SDS011;29717;47.028;15.470;2022-07-10T01:58:12;1.83;;;1.30;;
44048;SDS011;29717;47.028;15.470;2022-07-10T02:00:41;1.95;;;1.30;;
44048;SDS011;29717;47.028;15.470;2022-07-10T02:03:10;1.77;;;1.40;;
44048;SDS011;29717;47.028;15.470;2022-07-10T02:05:56;1.38;;;1.27;;
44048;SDS011;29717;47.028;15.470;2022-07-10T02:08:31;2.45;;;1.40;;
44048;SDS011;29717;47.028;15.470;2022-07-10T02:10:58;2.08;;;1.30;;
44048;SDS011;29717;47.028;15.470;2022-07-10T02:13:34;1.63;;;1.45;;
44048;SDS011;29717;47.028;15.470;2022-07-10T02:16:02;1.33;;;1.23;;
44048;SDS011;29717;47.028;15.470;2022-07-10T02:18:37;2.67;;;1.60;;
44048;SDS011;29717;47.028;15.470;2022-07-10T02:21:08;2.47;;;1.50;;
44048;SDS011;29717;47.028;15.470;2022-07-10T02:23:40;1.88;;;1.40;;
44048;SDS011;29717;47.028;15.470;2022-07-10T02:26:08;1.63;;;1.33;;
44048;SDS011;29717;47.028;15.470;2022-07-10T02:28:38;1.88;;;1.42;;
44048;SDS011;29717;47.028;15.470;2022-07-10T02:31:06;4.45;;;1.50;;
44048;SDS011;29717;47.028;15.470;2022-07-10T02:33:40;1.67;;;1.50;;
44048;SDS011;29717;47.028;15.470;2022-07-10T02:36:11;1.75;;;1.40;;
44048;SDS011;29717;47.028;15.470;2022-07-10T02:38:48;2.25;;;1.40;;
44048;SDS011;29717;47.028;15.470;2022-07-10T02:41:18;3.42;;;1.52;;
44048;SDS011;29717;47.028;15.470;2022-07-10T02:43:51;2.42;;;1.73;;
44048;SDS011;29717;47.028;15.470;2022-07-10T02:46:31;1.55;;;1.45;;
44048;SDS011;29717;47.028;15.470;2022-07-10T02:49:13;1.67;;;1.25;;
44048;SDS011;29717;47.028;15.470;2022-07-10T02:51:43;1.45;;;1.35;;
44048;SDS011;29717;47.028;15.470;2022-07-10T02:54:16;1.50;;;1.40;;
44048;SDS011;29717;47.028;15.470;2022-07-10T02:56:46;1.77;;;1.40;;
44048;SDS011;29717;47.028;15.470;2022-07-10T02:59:15;2.25;;;1.30;;
44048;SDS011;29717;47.028;15.470;2022-07-10T03:01:49;2.72;;;1.70;;
44048;SDS011;29717;47.028;15.470;2022-07-10T03:04:27;1.30;;;1.20;;
44048;SDS011;29717;47.028;15.470;2022-07-10T03:07:10;2.03;;;1.48;;
44048;SDS011;29717;47.028;15.470;2022-07-10T03:09:45;3.70;;;1.40;;
44048;SDS011;29717;47.028;15.470;2022-07-10T03:12:25;1.75;;;1.52;;
44048;SDS011;29717;47.028;15.470;2022-07-10T03:15:03;1.83;;;1.50;;
44048;SDS011;29717;47.028;15.470;2022-07-10T03:17:36;1.70;;;1.40;;
44048;SDS011;29717;47.028;15.470;2022-07-10T03:20:08;2.33;;;1.40;;
44048;SDS011;29717;47.028;15.470;2022-07-10T03:22:41;1.70;;;1.58;;
44048;SDS011;29717;47.028;15.470;2022-07-10T03:25:10;1.73;;;1.60;;
44048;SDS011;29717;47.028;15.470;2022-07-10T03:27:43;2.17;;;1.90;;
44048;SDS011;29717;47.028;15.470;2022-07-10T03:30:13;5.35;;;1.70;;
44048;SDS011;29717;47.028;15.470;2022-07-10T03:32:48;2.10;;;1.52;;
44048;SDS011;29717;47.028;15.470;2022-07-10T03:35:22;2.65;;;1.58;;
44048;SDS011;29717;47.028;15.470;2022-07-10T03:37:51;1.60;;;1.50;;
44048;SDS011;29717;47.028;15.470;2022-07-10T03:40:22;1.92;;;1.80;;
44048;SDS011;29717;47.028;15.470;2022-07-10T03:43:03;2.05;;;1.85;;
44048;SDS011;29717;47.028;15.470;2022-07-10T03:45:33;1.60;;;1.50;;
44048;SDS011;29717;47.028;15.470;2022-07-10T03:48:13;2.88;;;1.88;;
44048;SDS011;29717;47.028;15.470;2022-07-10T03:50:43;1.75;;;1.52;;
44048;SDS011;29717;47.028;15.470;2022-07-10T03:53:10;1.73;;;1.60;;
44048;SDS011;29717;47.028;15.470;2022-07-10T03:55:39;2.10;;;1.90;;
44048;SDS011;29717;47.028;15.470;2022-07-10T03:58:09;4.28;;;1.80;;
44048;SDS011;29717;47.028;15.470;2022-07-10T04:00:37;2.15;;;1.83;;
44048;SDS011;29717;47.028;15.470;2022-07-10T04:03:08;1.75;;;1.65;;
44048;SDS011;29717;47.028;15.470;2022-07-10T04:05:35;1.75;;;1.65;;
44048;SDS011;29717;47.028;15.470;2022-07-10T04:08:03;3.08;;;1.90;;
44048;SDS011;29717;47.028;15.470;2022-07-10T04:10:33;3.45;;;1.90;;
44048;SDS011;29717;47.028;15.470;2022-07-10T04:13:05;2.35;;;1.65;;
44048;SDS011;29717;47.028;15.470;2022-07-10T04:15:35;2.00;;;1.80;;
44048;SDS011;29717;47.028;15.470;2022-07-10T04:18:05;1.52;;;1.42;;
44048;SDS011;29717;47.028;15.470;2022-07-10T04:20:32;2.38;;;1.73;;
44048;SDS011;29717;47.028;15.470;2022-07-10T04:23:01;4.32;;;2.03;;
44048;SDS011;29717;47.028;15.470;2022-07-10T04:25:28;5.80;;;2.08;;
44048;SDS011;29717;47.028;15.470;2022-07-10T04:27:58;1.98;;;1.77;;
44048;SDS011;29717;47.028;15.470;2022-07-10T04:30:29;2.20;;;1.80;;
44048;SDS011;29717;47.028;15.470;2022-07-10T04:33:02;5.10;;;2.20;;
44048;SDS011;29717;47.028;15.470;2022-07-10T04:35:32;2.15;;;1.60;;
44048;SDS011;29717;47.028;15.470;2022-07-10T04:38:01;2.88;;;2.10;;
44048;SDS011;29717;47.028;15.470;2022-07-10T04:40:35;2.72;;;1.88;;
44048;SDS011;29717;47.028;15.470;2022-07-10T04:43:02;1.98;;;1.67;;
44048;SDS011;29717;47.028;15.470;2022-07-10T04:45:31;3.53;;;1.70;;
44048;SDS011;29717;47.028;15.470;2022-07-10T04:48:01;4.03;;;1.90;;
44048;SDS011;29717;47.028;15.470;2022-07-10T04:50:28;4.57;;;1.90;;
44048;SDS011;29717;47.028;15.470;2022-07-10T04:52:55;2.75;;;1.80;;
44048;SDS011;29717;47.028;15.470;2022-07-10T04:55:24;2.63;;;1.90;;
44048;SDS011;29717;47.028;15.470;2022-07-10T04:57:52;3.67;;;1.65;;
44048;SDS011;29717;47.028;15.470;2022-07-10T05:00:21;2.10;;;1.75;;
44048;SDS011;29717;47.028;15.470;2022-07-10T05:02:50;2.17;;;1.77;;
44048;SDS011;29717;47.028;15.470;2022-07-10T05:05:18;3.53;;;2.17;;
44048;SDS011;29717;47.028;15.470;2022-07-10T05:07:47;2.88;;;1.92;;
44048;SDS011;29717;47.028;15.470;2022-07-10T05:10:17;4.05;;;2.03;;
44048;SDS011;29717;47.028;15.470;2022-07-10T05:12:59;2.83;;;2.15;;
44048;SDS011;29717;47.028;15.470;2022-07-10T05:15:31;6.03;;;2.10;;
44048;SDS011;29717;47.028;15.470;2022-07-10T05:18:03;4.82;;;2.05;;
44048;SDS011;29717;47.028;15.470;2022-07-10T05:20:35;4.43;;;2.35;;
44048;SDS011;29717;47.028;15.470;2022-07-10T05:23:07;2.60;;;2.00;;
44048;SDS011;29717;47.028;15.470;2022-07-10T05:25:35;2.13;;;1.92;;
44048;SDS011;29717;47.028;15.470;2022-07-10T05:28:04;6.22;;;1.90;;
44048;SDS011;29717;47.028;15.470;2022-07-10T05:30:31;3.03;;;1.83;;
44048;SDS011;29717;47.028;15.470;2022-07-10T05:32:58;6.47;;;2.40;;
44048;SDS011;29717;47.028;15.470;2022-07-10T05:35:29;4.53;;;2.22;;
44048;SDS011;29717;47.028;15.470;2022-07-10T05:38:03;2.30;;;2.05;;
44048;SDS011;29717;47.028;15.470;2022-07-10T05:43:07;3.55;;;1.90;;
44048;SDS011;29717;47.028;15.470;2022-07-10T05:45:37;3.13;;;2.00;;
44048;SDS011;29717;47.028;15.470;2022-07-10T05:48:09;6.15;;;2.20;;
44048;SDS011;29717;47.028;15.470;2022-07-10T05:50:39;4.00;;;2.13;;
44048;SDS011;29717;47.028;15.470;2022-07-10T05:53:11;2.35;;;2.08;;
44048;SDS011;29717;47.028;15.470;2022-07-10T05:55:38;3.85;;;1.90;;
44048;SDS011;29717;47.028;15.470;2022-07-10T05:58:06;3.28;;;2.13;;
44048;SDS011;29717;47.028;15.470;2022-07-10T06:00:40;2.33;;;2.13;;
44048;SDS011;29717;47.028;15.470;2022-07-10T06:03:09;2.72;;;1.95;;
44048;SDS011;29717;47.028;15.470;2022-07-10T06:05:36;3.35;;;2.00;;
44048;SDS011;29717;47.028;15.470;2022-07-10T06:08:26;3.72;;;2.10;;
44048;SDS011;29717;47.028;15.470;2022-07-10T06:10:54;2.88;;;1.92;;
44048;SDS011;29717;47.028;15.470;2022-07-10T06:13:21;4.10;;;2.08;;
44048;SDS011;29717;47.028;15.470;2022-07-10T06:15:59;4.63;;;2.28;;
44048;SDS011;29717;47.028;15.470;2022-07-10T06:18:28;3.33;;;2.38;;
44048;SDS011;29717;47.028;15.470;2022-07-10T06:21:07;5.45;;;2.50;;
44048;SDS011;29717;47.028;15.470;2022-07-10T06:27:17;4.45;;;2.17;;
44048;SDS011;29717;47.028;15.470;2022-07-10T06:29:44;5.28;;;2.60;;
44048;SDS011;29717;47.028;15.470;2022-07-10T06:32:11;4.10;;;2.60;;
44048;SDS011;29717;47.028;15.470;2022-07-10T06:34:38;3.83;;;2.40;;
44048;SDS011;29717;47.028;15.470;2022-07-10T06:37:05;3.50;;;2.08;;
44048;SDS011;29717;47.028;15.470;2022-07-10T06:39:33;2.53;;;2.15;;
44048;SDS011;29717;47.028;15.470;2022-07-10T06:42:00;4.43;;;2.63;;
44048;SDS011;29717;47.028;15.470;2022-07-10T06:44:28;3.88;;;2.60;;
44048;SDS011;29717;47.028;15.470;2022-07-10T06:46:55;5.28;;;3.17;;
44048;SDS011;29717;47.028;15.470;2022-07-10T06:49:40;4.38;;;3.00;;
44048;SDS011;29717;47.028;15.470;2022-07-10T06:52:07;3.13;;;2.40;;
44048;SDS011;29717;47.028;15.470;2022-07-10T06:54:34;4.70;;;2.42;;
44048;SDS011;29717;47.028;15.470;2022-07-10T06:57:01;2.70;;;2.10;;
44048;SDS011;29717;47.028;15.470;2022-07-10T06:59:29;2.75;;;2.15;;
44048;SDS011;29717;47.028;15.470;2022-07-10T07:01:58;3.50;;;2.17;;
44048;SDS011;29717;47.028;15.470;2022-07-10T07:04:25;4.32;;;2.45;;
44048;SDS011;29717;47.028;15.470;2022-07-10T07:06:52;3.28;;;2.30;;
44048;SDS011;29717;47.028;15.470;2022-07-10T07:09:19;2.47;;;2.28;;
44048;SDS011;29717;47.028;15.470;2022-07-10T07:11:46;3.85;;;2.13;;
44048;SDS011;29717;47.028;15.470;2022-07-10T07:14:13;5.50;;;2.30;;
44048;SDS011;29717;47.028;15.470;2022-07-10T07:16:41;3.38;;;2.33;;
44048;SDS011;29717;47.028;15.470;2022-07-10T07:19:10;3.55;;;2.20;;
44048;SDS011;29717;47.028;15.470;2022-07-10T07:21:42;2.97;;;2.20;;
44048;SDS011;29717;47.028;15.470;2022-07-10T07:24:27;4.18;;;2.38;;
44048;SDS011;29717;47.028;15.470;2022-07-10T07:26:53;4.80;;;2.17;;
44048;SDS011;29717;47.028;15.470;2022-07-10T07:29:20;2.58;;;1.73;;
44048;SDS011;29717;47.028;15.470;2022-07-10T07:31:49;2.78;;;1.60;;
44048;SDS011;29717;47.028;15.470;2022-07-10T07:34:16;2.17;;;1.60;;
44048;SDS011;29717;47.028;15.470;2022-07-10T07:36:43;6.75;;;1.52;;
44048;SDS011;29717;47.028;15.470;2022-07-10T07:39:09;2.92;;;1.58;;
44048;SDS011;29717;47.028;15.470;2022-07-10T07:41:36;3.28;;;1.52;;
44048;SDS011;29717;47.028;15.470;2022-07-10T07:44:03;2.60;;;1.40;;
44048;SDS011;29717;47.028;15.470;2022-07-10T07:46:30;2.10;;;1.42;;
44048;SDS011;29717;47.028;15.470;2022-07-10T07:48:59;2.45;;;1.33;;
44048;SDS011;29717;47.028;15.470;2022-07-10T07:51:27;2.63;;;1.38;;
44048;SDS011;29717;47.028;15.470;2022-07-10T07:53:54;4.72;;;1.42;;
44048;SDS011;29717;47.028;15.470;2022-07-10T07:56:21;3.63;;;1.20;;
44048;SDS011;29717;47.028;15.470;2022-07-10T07:58:48;2.17;;;1.00;;
44048;SDS011;29717;47.028;15.470;2022-07-10T08:01:14;3.72;;;1.35;;
44048;SDS011;29717;47.028;15.470;2022-07-10T08:03:41;5.55;;;1.38;;
44048;SDS011;29717;47.028;15.470;2022-07-10T08:06:10;2.42;;;1.38;;
44048;SDS011;29717;47.028;15.470;2022-07-10T08:08:37;3.65;;;1.25;;
44048;SDS011;29717;47.028;15.470;2022-07-10T08:11:04;2.72;;;0.98;;
44048;SDS011;29717;47.028;15.470;2022-07-10T08:13:31;2.85;;;1.00;;
44048;SDS011;29717;47.028;15.470;2022-07-10T08:15:59;1.88;;;0.93;;
44048;SDS011;29717;47.028;15.470;2022-07-10T08:18:26;1.00;;;0.90;;
44048;SDS011;29717;47.028;15.470;2022-07-10T08:20:53;3.33;;;0.90;;
44048;SDS011;29717;47.028;15.470;2022-07-10T08:23:21;1.85;;;1.08;;
44048;SDS011;29717;47.028;15.470;2022-07-10T08:25:48;0.90;;;0.80;;
44048;SDS011;29717;47.028;15.470;2022-07-10T08:28:15;1.42;;;0.90;;
44048;SDS011;29717;47.028;15.470;2022-07-10T08:30:41;2.95;;;1.00;;
44048;SDS011;29717;47.028;15.470;2022-07-10T08:33:08;0.80;;;0.80;;
44048;SDS011;29717;47.028;15.470;2022-07-10T08:35:37;1.05;;;0.90;;
44048;SDS011;29717;47.028;15.470;2022-07-10T08:38:07;1.33;;;1.00;;
44048;SDS011;29717;47.028;15.470;2022-07-10T08:40:35;1.02;;;0.93;;
44048;SDS011;29717;47.028;15.470;2022-07-10T08:43:03;0.80;;;0.80;;
44048;SDS011;29717;47.028;15.470;2022-07-10T08:45:30;2.47;;;0.82;;
44048;SDS011;29717;47.028;15.470;2022-07-10T08:47:58;0.70;;;0.70;;
44048;SDS011;29717;47.028;15.470;2022-07-10T08:50:29;1.23;;;0.85;;
44048;SDS011;29717;47.028;15.470;2022-07-10T08:53:00;0.80;;;0.80;;
44048;SDS011;29717;47.028;15.470;2022-07-10T08:55:27;0.95;;;0.85;;
44048;SDS011;29717;47.028;15.470;2022-07-10T08:57:56;0.88;;;0.88;;
44048;SDS011;29717;47.028;15.470;2022-07-10T09:00:24;1.40;;;0.85;;
44048;SDS011;29717;47.028;15.470;2022-07-10T09:02:52;3.63;;;0.95;;
44048;SDS011;29717;47.028;15.470;2022-07-10T09:05:19;1.58;;;1.00;;
44048;SDS011;29717;47.028;15.470;2022-07-10T09:07:48;1.13;;;0.90;;
44048;SDS011;29717;47.028;15.470;2022-07-10T09:10:16;0.75;;;0.75;;
44048;SDS011;29717;47.028;15.470;2022-07-10T09:12:49;0.90;;;0.80;;
44048;SDS011;29717;47.028;15.470;2022-07-10T09:15:18;1.10;;;1.00;;
44048;SDS011;29717;47.028;15.470;2022-07-10T09:17:49;0.88;;;0.80;;
44048;SDS011;29717;47.028;15.470;2022-07-10T09:20:26;0.85;;;0.85;;
44048;SDS011;29717;47.028;15.470;2022-07-10T09:22:55;1.02;;;0.70;;
44048;SDS011;29717;47.028;15.470;2022-07-10T09:25:24;0.82;;;0.82;;
44048;SDS011;29717;47.028;15.470;2022-07-10T09:27:56;1.67;;;1.00;;
44048;SDS011;29717;47.028;15.470;2022-07-10T09:30:35;0.98;;;0.90;;
44048;SDS011;29717;47.028;15.470;2022-07-10T09:33:22;1.00;;;0.90;;
44048;SDS011;29717;47.028;15.470;2022-07-10T09:35:56;1.25;;;1.05;;
44048;SDS011;29717;47.028;15.470;2022-07-10T09:38:51;1.27;;;0.90;;
44048;SDS011;29717;47.028;15.470;2022-07-10T09:41:22;0.80;;;0.80;;
44048;SDS011;29717;47.028;15.470;2022-07-10T09:43:50;0.82;;;0.82;;
44048;SDS011;29717;47.028;15.470;2022-07-10T09:46:19;0.73;;;0.73;;
44048;SDS011;29717;47.028;15.470;2022-07-10T09:48:46;1.63;;;0.73;;
44048;SDS011;29717;47.028;15.470;2022-07-10T09:51:13;1.05;;;0.90;;
44048;SDS011;29717;47.028;15.470;2022-07-10T09:53:40;0.93;;;0.88;;
44048;SDS011;29717;47.028;15.470;2022-07-10T09:56:08;0.80;;;0.80;;
44048;SDS011;29717;47.028;15.470;2022-07-10T09:58:35;0.80;;;0.80;;
44048;SDS011;29717;47.028;15.470;2022-07-10T10:01:03;1.30;;;0.82;;
44048;SDS011;29717;47.028;15.470;2022-07-10T10:03:34;0.88;;;0.88;;
44048;SDS011;29717;47.028;15.470;2022-07-10T10:06:02;1.17;;;1.08;;
44048;SDS011;29717;47.028;15.470;2022-07-10T10:08:33;1.17;;;1.00;;
44048;SDS011;29717;47.028;15.470;2022-07-10T10:11:04;0.85;;;0.80;;
44048;SDS011;29717;47.028;15.470;2022-07-10T10:13:31;3.33;;;0.98;;
44048;SDS011;29717;47.028;15.470;2022-07-10T10:16:01;0.70;;;0.70;;
44048;SDS011;29717;47.028;15.470;2022-07-10T10:18:28;0.75;;;0.75;;
44048;SDS011;29717;47.028;15.470;2022-07-10T10:20:57;2.80;;;0.90;;
44048;SDS011;29717;47.028;15.470;2022-07-10T10:23:24;1.15;;;0.70;;
44048;SDS011;29717;47.028;15.470;2022-07-10T10:25:53;3.47;;;0.63;;
44048;SDS011;29717;47.028;15.470;2022-07-10T10:28:21;0.90;;;0.90;;
44048;SDS011;29717;47.028;15.470;2022-07-10T10:30:50;2.08;;;1.10;;
44048;SDS011;29717;47.028;15.470;2022-07-10T10:36:04;2.25;;;1.60;;
44048;SDS011;29717;47.028;15.470;2022-07-10T10:41:22;1.20;;;0.88;;
44048;SDS011;29717;47.028;15.470;2022-07-10T10:44:04;0.88;;;0.88;;
44048;SDS011;29717;47.028;15.470;2022-07-10T10:46:53;0.82;;;0.82;;
44048;SDS011;29717;47.028;15.470;2022-07-10T10:49:22;0.80;;;0.63;;
44048;SDS011;29717;47.028;15.470;2022-07-10T10:51:58;0.82;;;0.82;;
44048;SDS011;29717;47.028;15.470;2022-07-10T10:54:25;1.10;;;1.00;;
44048;SDS011;29717;47.028;15.470;2022-07-10T10:59:46;1.27;;;1.17;;
44048;SDS011;29717;47.028;15.470;2022-07-10T11:02:24;1.10;;;1.00;;
44048;SDS011;29717;47.028;15.470;2022-07-10T11:04:51;1.67;;;1.02;;
44048;SDS011;29717;47.028;15.470;2022-07-10T11:10:29;3.15;;;1.10;;
44048;SDS011;29717;47.028;15.470;2022-07-10T11:13:00;1.00;;;1.00;;
44048;SDS011;29717;47.028;15.470;2022-07-10T11:15:27;4.05;;;1.13;;
44048;SDS011;29717;47.028;15.470;2022-07-10T11:17:55;2.50;;;1.05;;
44048;SDS011;29717;47.028;15.470;2022-07-10T11:20:22;0.90;;;0.90;;
44048;SDS011;29717;47.028;15.470;2022-07-10T11:22:52;1.30;;;1.20;;
44048;SDS011;29717;47.028;15.470;2022-07-10T11:25:31;2.15;;;0.82;;
44048;SDS011;29717;47.028;15.470;2022-07-10T11:28:04;1.40;;;0.90;;
44048;SDS011;29717;47.028;15.470;2022-07-10T11:30:43;1.35;;;0.82;;
44048;SDS011;29717;47.028;15.470;2022-07-10T11:33:10;1.70;;;0.80;;
44048;SDS011;29717;47.028;15.470;2022-07-10T11:35:38;3.08;;;0.90;;
44048;SDS011;29717;47.028;15.470;2022-07-10T11:38:05;1.98;;;0.88;;
44048;SDS011;29717;47.028;15.470;2022-07-10T11:40:36;1.38;;;0.90;;
44048;SDS011;29717;47.028;15.470;2022-07-10T11:43:03;1.98;;;1.10;;
44048;SDS011;29717;47.028;15.470;2022-07-10T11:45:32;1.95;;;1.13;;
44048;SDS011;29717;47.028;15.470;2022-07-10T11:48:03;1.08;;;1.08;;
44048;SDS011;29717;47.028;15.470;2022-07-10T11:50:34;1.23;;;1.00;;
44048;SDS011;29717;47.028;15.470;2022-07-10T11:53:01;1.00;;;1.00;;
44048;SDS011;29717;47.028;15.470;2022-07-10T11:55:29;0.88;;;0.88;;
44048;SDS011;29717;47.028;15.470;2022-07-10T11:57:58;1.65;;;1.08;;
44048;SDS011;29717;47.028;15.470;2022-07-10T12:00:26;2.13;;;1.20;;
44048;SDS011;29717;47.028;15.470;2022-07-10T12:02:53;1.40;;;1.30;;
44048;SDS011;29717;47.028;15.470;2022-07-10T12:05:32;1.30;;;1.20;;
44048;SDS011;29717;47.028;15.470;2022-07-10T12:08:00;0.98;;;0.90;;
44048;SDS011;29717;47.028;15.470;2022-07-10T12:10:27;1.80;;;1.15;;
44048;SDS011;29717;47.028;15.470;2022-07-10T12:13:03;1.00;;;0.90;;
44048;SDS011;29717;47.028;15.470;2022-07-10T12:15:31;1.17;;;0.98;;
44048;SDS011;29717;47.028;15.470;2022-07-10T12:17:58;0.73;;;0.70;;
44048;SDS011;29717;47.028;15.470;2022-07-10T12:20:25;1.65;;;1.00;;
44048;SDS011;29717;47.028;15.470;2022-07-10T12:22:52;0.98;;;0.98;;
44048;SDS011;29717;47.028;15.470;2022-07-10T12:25:19;1.92;;;1.05;;
44048;SDS011;29717;47.028;15.470;2022-07-10T12:27:46;1.10;;;1.00;;
44048;SDS011;29717;47.028;15.470;2022-07-10T12:30:15;1.00;;;1.00;;
44048;SDS011;29717;47.028;15.470;2022-07-10T12:32:42;0.80;;;0.80;;
44048;SDS011;29717;47.028;15.470;2022-07-10T12:35:09;2.50;;;1.20;;
44048;SDS011;29717;47.028;15.470;2022-07-10T12:37:46;3.05;;;1.08;;
44048;SDS011;29717;47.028;15.470;2022-07-10T12:43:01;1.55;;;1.20;;
44048;SDS011;29717;47.028;15.470;2022-07-10T12:45:29;1.08;;;1.00;;
44048;SDS011;29717;47.028;15.470;2022-07-10T12:47:56;1.60;;;1.20;;
44048;SDS011;29717;47.028;15.470;2022-07-10T12:50:23;1.13;;;1.02;;
44048;SDS011;29717;47.028;15.470;2022-07-10T12:55:34;1.10;;;1.00;;
44048;SDS011;29717;47.028;15.470;2022-07-10T12:58:06;5.28;;;1.10;;
44048;SDS011;29717;47.028;15.470;2022-07-10T13:00:36;1.63;;;0.98;;
44048;SDS011;29717;47.028;15.470;2022-07-10T13:03:10;2.30;;;1.00;;
44048;SDS011;29717;47.028;15.470;2022-07-10T13:05:40;1.92;;;1.10;;
44048;SDS011;29717;47.028;15.470;2022-07-10T13:08:08;0.88;;;0.88;;
44048;SDS011;29717;47.028;15.470;2022-07-10T13:10:36;0.80;;;0.80;;
44048;SDS011;29717;47.028;15.470;2022-07-10T13:13:04;0.70;;;0.70;;
44048;SDS011;29717;47.028;15.470;2022-07-10T13:15:32;0.77;;;0.77;;
44048;SDS011;29717;47.028;15.470;2022-07-10T13:18:07;0.90;;;0.90;;
44048;SDS011;29717;47.028;15.470;2022-07-10T13:20:34;1.98;;;0.80;;
44048;SDS011;29717;47.028;15.470;2022-07-10T13:23:01;0.93;;;0.90;;
44048;SDS011;29717;47.028;15.470;2022-07-10T13:25:28;1.73;;;0.88;;
44048;SDS011;29717;47.028;15.470;2022-07-10T13:27:55;0.82;;;0.82;;
44048;SDS011;29717;47.028;15.470;2022-07-10T13:30:22;1.13;;;1.00;;
44048;SDS011;29717;47.028;15.470;2022-07-10T13:32:49;0.77;;;0.77;;
44048;SDS011;29717;47.028;15.470;2022-07-10T13:35:17;1.83;;;1.10;;
44048;SDS011;29717;47.028;15.470;2022-07-10T13:37:45;1.38;;;1.00;;
44048;SDS011;29717;47.028;15.470;2022-07-10T13:40:11;1.08;;;0.95;;
44048;SDS011;29717;47.028;15.470;2022-07-10T13:42:38;1.20;;;1.02;;
44048;SDS011;29717;47.028;15.470;2022-07-10T13:45:06;1.60;;;1.00;;
44048;SDS011;29717;47.028;15.470;2022-07-10T13:47:33;1.33;;;1.10;;
44048;SDS011;29717;47.028;15.470;2022-07-10T13:50:00;2.22;;;1.00;;
44048;SDS011;29717;47.028;15.470;2022-07-10T13:52:28;1.42;;;0.88;;
44048;SDS011;29717;47.028;15.470;2022-07-10T13:54:55;1.20;;;1.10;;
44048;SDS011;29717;47.028;15.470;2022-07-10T13:57:23;1.52;;;1.20;;
44048;SDS011;29717;47.028;15.470;2022-07-10T13:59:50;2.20;;;1.08;;
44048;SDS011;29717;47.028;15.470;2022-07-10T14:02:17;1.15;;;1.00;;
44048;SDS011;29717;47.028;15.470;2022-07-10T14:04:43;1.52;;;1.10;;
44048;SDS011;29717;47.028;15.470;2022-07-10T14:07:10;1.15;;;1.08;;
44048;SDS011;29717;47.028;15.470;2022-07-10T14:09:39;1.88;;;1.10;;
44048;SDS011;29717;47.028;15.470;2022-07-10T14:12:06;1.15;;;1.08;;
44048;SDS011;29717;47.028;15.470;2022-07-10T14:14:33;1.45;;;1.00;;
44048;SDS011;29717;47.028;15.470;2022-07-10T14:16:59;1.13;;;1.02;;
44048;SDS011;29717;47.028;15.470;2022-07-10T14:19:26;3.00;;;0.90;;
44048;SDS011;29717;47.028;15.470;2022-07-10T14:21:53;1.90;;;0.90;;
44048;SDS011;29717;47.028;15.470;2022-07-10T14:24:20;1.58;;;1.08;;
44048;SDS011;29717;47.028;15.470;2022-07-10T14:26:48;1.35;;;1.25;;
44048;SDS011;29717;47.028;15.470;2022-07-10T14:29:15;1.02;;;0.90;;
44048;SDS011;29717;47.028;15.470;2022-07-10T14:31:42;1.10;;;1.00;;
44048;SDS011;29717;47.028;15.470;2022-07-10T14:34:10;1.30;;;1.13;;
44048;SDS011;29717;47.028;15.470;2022-07-10T14:36:37;1.00;;;0.95;;
44048;SDS011;29717;47.028;15.470;2022-07-10T14:39:04;4.10;;;1.20;;
44048;SDS011;29717;47.028;15.470;2022-07-10T14:41:31;1.98;;;1.10;;
44048;SDS011;29717;47.028;15.470;2022-07-10T14:43:59;1.40;;;1.10;;
44048;SDS011;29717;47.028;15.470;2022-07-10T14:46:26;2.45;;;1.25;;
44048;SDS011;29717;47.028;15.470;2022-07-10T14:48:53;1.83;;;1.00;;
44048;SDS011;29717;47.028;15.470;2022-07-10T14:51:20;2.05;;;1.00;;
44048;SDS011;29717;47.028;15.470;2022-07-10T14:53:47;0.90;;;0.90;;
44048;SDS011;29717;47.028;15.470;2022-07-10T14:56:14;1.00;;;1.00;;
44048;SDS011;29717;47.028;15.470;2022-07-10T14:58:41;1.42;;;1.08;;
44048;SDS011;29717;47.028;15.470;2022-07-10T15:01:10;1.25;;;1.10;;
44048;SDS011;29717;47.028;15.470;2022-07-10T15:03:37;2.70;;;1.17;;
44048;SDS011;29717;47.028;15.470;2022-07-10T15:06:04;1.40;;;1.10;;
44048;SDS011;29717;47.028;15.470;2022-07-10T15:08:30;1.13;;;0.98;;
44048;SDS011;29717;47.028;15.470;2022-07-10T15:10:57;1.20;;;1.08;;
44048;SDS011;29717;47.028;15.470;2022-07-10T15:13:25;2.45;;;1.00;;